Time;durP1;ratioP1;P1;durP2;ratioP2;P2;SDS_P1;SDS_P2;PMS_P1;PMS_P2;Temp;Humidity;BMP_temperature;BMP_pressure;BME280_temperature;BME280_humidity;BME280_pressure;Samples;Min_cycle;Max_cycle;Signal;HPM_P1;HPM_P2
2022/06/01 00:01:10;;;;;;;4.63;1.90;;;;;;;23.88;52.74;96783.75;5114618;28;20046;-27
2022/06/01 00:03:38;;;;;;;5.28;2.40;;;;;;;23.86;52.65;96780.72;5114464;28;20472;-29
2022/06/01 00:06:04;;;;;;;4.32;2.65;;;;;;;23.85;52.87;96793.09;5114416;28;20157;-27
2022/06/01 00:08:30;;;;;;;5.88;2.58;;;;;;;23.83;52.88;96784.53;5114799;28;20102;-27
2022/06/01 00:10:57;;;;;;;6.38;2.50;;;;;;;23.83;52.83;96779.00;5114281;28;20434;-27
2022/06/01 00:13:23;;;;;;;3.80;2.22;;;;;;;23.83;52.52;96781.75;5114592;28;20383;-27
2022/06/01 00:15:49;;;;;;;7.15;2.35;;;;;;;23.85;52.29;96790.31;5114096;28;20077;-26
2022/06/01 00:18:14;;;;;;;4.38;2.20;;;;;;;23.86;52.20;96785.53;5114384;28;20031;-26
2022/06/01 00:20:40;;;;;;;6.65;2.67;;;;;;;23.83;52.50;96784.53;5114236;28;20076;-26
2022/06/01 00:23:06;;;;;;;3.53;2.40;;;;;;;23.80;52.34;96785.53;5114215;28;20092;-26
2022/06/01 00:25:32;;;;;;;4.32;2.83;;;;;;;23.83;52.46;96781.75;5114169;28;20023;-29
2022/06/01 00:27:57;;;;;;;3.58;2.35;;;;;;;23.81;52.21;96787.03;5114105;28;20114;-27
2022/06/01 00:30:23;;;;;;;6.00;2.20;;;;;;;23.83;52.27;96787.28;5113956;28;20030;-28
2022/06/01 00:32:49;;;;;;;4.70;2.22;;;;;;;23.80;52.31;96784.78;5114108;28;20023;-27
2022/06/01 00:35:18;;;;;;;4.50;2.47;;;;;;;23.79;51.97;96772.19;5114370;28;20019;-26
2022/06/01 00:37:43;;;;;;;6.43;2.83;;;;;;;23.80;52.14;96785.53;5114189;28;20059;-27
2022/06/01 00:40:12;;;;;;;4.10;1.90;;;;;;;23.79;52.16;96774.97;5114011;28;20054;-27
2022/06/01 00:42:41;;;;;;;4.50;2.58;;;;;;;23.78;51.68;96774.19;5114144;28;20027;-26
2022/06/01 00:45:09;;;;;;;5.10;2.33;;;;;;;23.80;51.67;96776.47;5113667;28;20051;-27
2022/06/01 00:47:35;;;;;;;3.45;2.38;;;;;;;23.81;51.57;96772.44;5113780;28;20031;-26
2022/06/01 00:50:03;;;;;;;7.72;2.50;;;;;;;23.76;51.58;96768.41;5113937;28;20044;-27
2022/06/01 00:52:38;;;;;;;5.90;2.85;;;;;;;23.77;51.75;96775.47;5113885;28;20035;-26
2022/06/01 00:55:15;;;;;;;4.70;2.50;;;;;;;23.81;51.41;96775.97;5113813;28;20032;-27
2022/06/01 00:57:41;;;;;;;4.30;2.00;;;;;;;23.79;51.29;96778.47;5113691;28;20382;-27
2022/06/01 01:00:17;;;;;;;7.25;2.05;;;;;;;23.75;51.39;96780.75;5113759;28;20069;-27
2022/06/01 01:02:44;;;;;;;3.42;2.20;;;;;;;23.75;51.32;96786.28;5113935;28;20028;-27
2022/06/01 01:05:11;;;;;;;6.20;2.70;;;;;;;23.76;51.31;96782.25;5117912;28;20027;-26
2022/06/01 01:07:40;;;;;;;7.10;2.40;;;;;;;23.76;51.42;96785.03;5118168;28;20487;-26
2022/06/01 01:10:07;;;;;;;6.68;2.67;;;;;;;23.79;51.12;96783.25;5117653;28;20114;-27
2022/06/01 01:12:56;;;;;;;6.25;2.53;;;;;;;23.77;51.06;96781.00;5117846;28;20028;-27
2022/06/01 01:15:20;;;;;;;4.18;2.20;;;;;;;23.75;51.10;96783.50;5117605;28;20055;-26
2022/06/01 01:17:49;;;;;;;5.55;2.40;;;;;;;23.75;51.21;96777.97;5117688;28;20031;-27
2022/06/01 01:20:15;;;;;;;4.60;2.40;;;;;;;23.77;50.98;96778.22;5117653;28;20489;-27
2022/06/01 01:23:00;;;;;;;8.32;2.40;;;;;;;23.74;51.16;96776.47;5117540;28;20102;-26
2022/06/01 01:25:29;;;;;;;4.95;2.55;;;;;;;23.76;51.14;96785.03;5117478;28;20348;-26
2022/06/01 01:27:57;;;;;;;5.88;2.25;;;;;;;23.76;51.18;96781.50;5117391;28;20032;-27
2022/06/01 01:30:37;;;;;;;4.80;2.30;;;;;;;23.73;51.07;96777.75;5117838;28;20028;-27
2022/06/01 01:33:18;;;;;;;5.75;2.33;;;;;;;23.72;51.21;96784.56;5117545;28;20020;-27
2022/06/01 01:35:48;;;;;;;5.78;2.33;;;;;;;23.72;51.13;96784.56;5117273;28;20027;-26
2022/06/01 01:38:27;;;;;;;6.63;3.20;;;;;;;23.73;50.77;96788.84;5117543;28;20092;-26
2022/06/01 01:41:15;;;;;;;6.95;2.20;;;;;;;23.72;50.94;96787.31;5117222;28;20429;-27
2022/06/01 01:43:48;;;;;;;4.57;1.92;;;;;;;23.67;51.31;96788.06;5117346;28;20031;-26
2022/06/01 01:46:14;;;;;;;5.10;2.38;;;;;;;23.67;50.79;96788.06;5117062;28;20039;-26
2022/06/01 01:48:40;;;;;;;6.88;2.42;;;;;;;23.68;50.95;96784.03;5117105;28;20039;-27
2022/06/01 01:51:05;;;;;;;3.83;2.53;;;;;;;23.68;51.02;96786.81;5117374;28;20031;-26
2022/06/01 01:53:32;;;;;;;8.15;2.28;;;;;;;23.69;51.00;96790.34;5117067;28;20066;-27
2022/06/01 01:56:21;;;;;;;5.75;2.90;;;;;;;23.69;50.86;96787.56;5116884;28;20015;-27
2022/06/01 01:59:20;;;;;;;5.97;2.67;;;;;;;23.67;50.85;96782.53;5117046;28;20031;-26
2022/06/01 02:02:10;;;;;;;5.32;2.47;;;;;;;23.69;50.67;96785.56;5117019;28;20027;-27
2022/06/01 02:07:43;;;;;;;6.38;2.70;;;;;;;23.69;50.88;96793.09;5116683;28;20053;-27
2022/06/01 02:12:54;;;;;;;4.70;2.30;;;;;;;23.68;50.74;96794.34;5115522;28;20046;-27
2022/06/01 02:15:33;;;;;;;6.72;2.70;;;;;;;23.67;50.84;96793.59;5115191;28;20019;-29
2022/06/01 02:18:05;;;;;;;5.55;2.45;;;;;;;23.67;50.85;96788.06;5115221;28;20360;-27
2022/06/01 02:20:49;;;;;;;4.78;2.30;;;;;;;23.66;50.70;96783.78;5115624;28;20016;-26
2022/06/01 02:23:16;;;;;;;5.28;2.55;;;;;;;23.66;50.94;96778.25;5115695;28;20027;-26
2022/06/01 02:25:45;;;;;;;4.82;2.25;;;;;;;23.65;51.15;96779.50;5115355;28;20076;-27
2022/06/01 02:28:11;;;;;;;6.90;2.20;;;;;;;23.63;51.07;96766.16;5115516;28;20016;-27
2022/06/01 02:30:40;;;;;;;4.38;2.40;;;;;;;23.61;51.17;96767.94;5115080;28;20102;-27
2022/06/01 02:33:09;;;;;;;7.32;2.58;;;;;;;23.64;51.18;96772.44;5115157;28;20486;-29
2022/06/01 02:35:38;;;;;;;4.68;2.33;;;;;;;23.64;51.29;96773.22;5115003;28;20106;-26
2022/06/01 02:38:10;;;;;;;7.70;2.70;;;;;;;23.65;51.29;96768.44;5115094;28;20027;-27
2022/06/01 02:40:37;;;;;;;8.57;3.17;;;;;;;23.65;51.52;96768.44;5115211;28;20020;-26
2022/06/01 02:43:03;;;;;;;7.63;2.40;;;;;;;23.66;51.29;96769.94;5115171;28;20024;-26
2022/06/01 02:45:29;;;;;;;4.50;2.65;;;;;;;23.63;51.28;96770.94;5115116;28;20045;-26
2022/06/01 02:47:58;;;;;;;5.63;2.45;;;;;;;23.65;51.46;96773.97;5114835;28;20102;-26
2022/06/01 02:50:27;;;;;;;5.05;2.40;;;;;;;23.63;51.40;96770.94;5115378;28;20110;-27
2022/06/01 02:52:53;;;;;;;5.85;2.42;;;;;;;23.65;51.21;96771.19;5114804;28;20033;-26
2022/06/01 02:55:21;;;;;;;5.88;2.83;;;;;;;23.64;51.11;96775.22;5114816;28;20031;-26
2022/06/01 02:57:47;;;;;;;7.35;2.72;;;;;;;23.64;51.26;96783.53;5114731;28;20064;-27
2022/06/01 03:00:17;;;;;;;7.47;2.97;;;;;;;23.64;51.14;96775.97;5114707;28;20102;-26
2022/06/01 03:02:47;;;;;;;5.53;2.83;;;;;;;23.63;51.39;96776.47;5114541;28;20103;-27
2022/06/01 03:05:15;;;;;;;5.72;2.25;;;;;;;23.60;51.53;96777.50;5114548;28;20032;-28
2022/06/01 03:07:40;;;;;;;5.05;2.67;;;;;;;23.60;51.36;96777.50;5114942;28;20047;-27
2022/06/01 03:10:06;;;;;;;5.70;2.63;;;;;;;23.60;51.31;96780.28;5070407;28;1268358;-27
2022/06/01 03:12:32;;;;;;;7.25;2.78;;;;;;;23.61;51.20;96774.22;5115620;28;20399;-27
2022/06/01 03:14:57;;;;;;;5.13;2.30;;;;;;;23.59;51.18;96778.78;5097369;28;20019;-26
2022/06/01 03:17:23;;;;;;;4.85;2.65;;;;;;;23.58;51.19;96780.03;5115254;28;20027;-27
2022/06/01 03:19:48;;;;;;;5.05;2.67;;;;;;;23.60;51.04;96783.81;5115503;28;20459;-28
2022/06/01 03:22:14;;;;;;;6.22;2.47;;;;;;;23.59;51.18;96789.84;5115400;28;20029;-27
2022/06/01 03:24:40;;;;;;;4.82;2.30;;;;;;;23.59;51.06;96793.38;5115052;28;20034;-26
2022/06/01 03:27:05;;;;;;;4.88;2.60;;;;;;;23.56;51.37;96791.59;5114503;28;20024;-27
2022/06/01 03:29:31;;;;;;;4.63;2.55;;;;;;;23.59;51.12;96795.38;5115145;28;20118;-29
2022/06/01 03:31:58;;;;;;;6.05;2.50;;;;;;;23.59;51.37;96803.69;5115406;28;20031;-26
2022/06/01 03:34:25;;;;;;;5.60;2.67;;;;;;;23.58;51.25;96805.69;5114921;28;20023;-27
2022/06/01 03:36:51;;;;;;;5.72;2.60;;;;;;;23.58;51.11;96807.72;5115001;28;20035;-26
2022/06/01 03:39:16;;;;;;;5.13;2.47;;;;;;;23.57;51.19;96800.66;5114898;28;20023;-26
2022/06/01 03:41:42;;;;;;;7.50;2.50;;;;;;;23.58;51.40;96802.19;5115112;28;20027;-26
2022/06/01 03:46:52;;;;;;;6.72;3.25;;;;;;;23.57;51.31;96803.44;5114765;28;20387;-28
2022/06/01 03:49:18;;;;;;;8.48;2.45;;;;;;;23.59;51.53;96806.47;5114765;28;20092;-26
2022/06/01 03:51:44;;;;;;;6.82;3.10;;;;;;;23.60;51.59;96802.44;5114725;28;20034;-27
2022/06/01 03:54:09;;;;;;;7.45;2.70;;;;;;;23.60;51.61;96810.75;5114659;28;20031;-26
2022/06/01 03:56:35;;;;;;;5.10;2.78;;;;;;;23.62;51.48;96814.50;5114783;28;20024;-27
2022/06/01 03:59:01;;;;;;;5.22;2.65;;;;;;;23.59;51.46;96814.75;5114552;28;20023;-29
2022/06/01 04:01:27;;;;;;;9.18;3.10;;;;;;;23.58;51.86;96814.00;5114671;28;20047;-26
2022/06/01 04:03:52;;;;;;;6.57;2.80;;;;;;;23.58;51.50;96816.03;5114768;28;20474;-27
2022/06/01 04:06:18;;;;;;;8.85;3.08;;;;;;;23.56;51.50;96821.28;5114460;28;20460;-26
2022/06/01 04:08:43;;;;;;;5.32;2.78;;;;;;;23.58;51.90;96827.84;5114259;28;20028;-26
2022/06/01 04:11:08;;;;;;;5.63;2.90;;;;;;;23.57;51.81;96822.81;5114358;28;20023;-26
2022/06/01 04:13:35;;;;;;;7.70;3.15;;;;;;;23.59;51.83;96828.59;5114304;28;20054;-27
2022/06/01 04:16:01;;;;;;;6.00;2.88;;;;;;;23.57;52.19;96831.88;5114299;28;20027;-27
2022/06/01 04:18:26;;;;;;;7.15;2.65;;;;;;;23.57;52.05;96828.34;5114613;28;20023;-26
2022/06/01 04:20:53;;;;;;;7.45;3.30;;;;;;;23.58;52.01;96829.84;5114468;28;20532;-28
2022/06/01 04:23:19;;;;;;;7.75;2.83;;;;;;;23.57;51.94;96831.13;5114224;28;20028;-27
2022/06/01 04:25:44;;;;;;;4.40;2.83;;;;;;;23.57;51.90;96842.94;5114032;28;20376;-26
2022/06/01 04:28:10;;;;;;;7.03;3.22;;;;;;;23.58;51.68;96840.94;5114342;28;20072;-26
2022/06/01 04:30:36;;;;;;;4.70;2.95;;;;;;;23.57;51.91;96842.19;5114208;28;20028;-28
2022/06/01 04:33:03;;;;;;;4.68;2.70;;;;;;;23.59;51.83;96845.22;5113998;28;20525;-26
2022/06/01 04:35:28;;;;;;;4.20;2.60;;;;;;;23.56;52.14;96848.97;5113907;28;20016;-27
2022/06/01 04:38:12;;;;;;;6.85;3.20;;;;;;;23.57;52.08;96848.47;5114137;28;20023;-27
2022/06/01 04:40:38;;;;;;;5.78;2.78;;;;;;;23.57;51.80;96850.50;5114130;28;20028;-26
2022/06/01 04:43:04;;;;;;;7.35;3.42;;;;;;;23.58;52.04;96852.00;5114057;28;20038;-27
2022/06/01 04:45:29;;;;;;;5.68;3.30;;;;;;;23.56;52.09;96851.75;5114131;28;20030;-27
2022/06/01 04:47:55;;;;;;;5.15;2.60;;;;;;;23.56;51.88;96854.53;5113678;28;20059;-26
2022/06/01 04:50:20;;;;;;;5.05;2.85;;;;;;;23.57;51.77;96850.50;5114067;28;20103;-26
2022/06/01 04:52:46;;;;;;;5.03;3.00;;;;;;;23.55;52.09;96855.78;5113737;28;20046;-27
2022/06/01 04:55:11;;;;;;;5.05;2.60;;;;;;;23.55;52.00;96861.31;5113758;28;20026;-28
2022/06/01 04:57:39;;;;;;;6.85;3.28;;;;;;;23.55;52.08;96858.53;5113484;28;20065;-27
2022/06/01 05:00:06;;;;;;;6.43;2.67;;;;;;;23.57;52.24;96867.09;5114237;28;20028;-26
2022/06/01 05:02:31;;;;;;;6.40;3.03;;;;;;;23.56;52.12;96865.59;5113698;28;20471;-26
2022/06/01 05:04:57;;;;;;;5.50;3.00;;;;;;;23.55;52.28;96864.09;5113674;28;20111;-26
2022/06/01 05:07:22;;;;;;;5.65;2.85;;;;;;;23.56;52.13;96862.81;5113597;28;20020;-27
2022/06/01 05:09:47;;;;;;;4.95;2.65;;;;;;;23.56;52.21;96855.28;5113534;28;20055;-26
2022/06/01 05:12:13;;;;;;;7.43;3.25;;;;;;;23.53;52.45;96861.81;5113679;28;20030;-28
2022/06/01 05:14:38;;;;;;;6.57;3.40;;;;;;;23.55;52.34;96867.59;5112714;28;20027;-27
2022/06/01 05:17:04;;;;;;;5.35;3.05;;;;;;;23.56;52.52;96865.59;5111741;28;20031;-28
2022/06/01 05:19:32;;;;;;;8.63;3.50;;;;;;;23.54;52.60;96868.09;5110304;28;20035;-27
2022/06/01 05:21:59;;;;;;;4.30;2.97;;;;;;;23.55;52.38;96869.63;5111670;28;20076;-26
2022/06/01 05:24:25;;;;;;;6.10;3.08;;;;;;;23.56;52.66;96871.13;5111572;28;20437;-27
2022/06/01 05:26:50;;;;;;;6.50;3.30;;;;;;;23.55;52.34;96875.91;5111292;28;20095;-27
2022/06/01 05:29:16;;;;;;;5.45;3.25;;;;;;;23.41;53.35;96871.34;5111516;28;20115;-26
2022/06/01 05:31:44;;;;;;;5.32;3.05;;;;;;;23.29;53.61;96881.63;5111542;28;20035;-26
2022/06/01 05:34:09;;;;;;;4.45;2.97;;;;;;;23.40;53.25;96883.66;5111403;28;20042;-27
2022/06/01 05:36:35;;;;;;;4.85;2.92;;;;;;;23.48;52.98;96879.16;5110664;28;20015;-26
2022/06/01 05:39:00;;;;;;;5.20;3.05;;;;;;;23.54;52.38;96879.19;5110682;28;20034;-27
2022/06/01 05:41:26;;;;;;;3.00;2.30;;;;;;;23.51;52.64;96874.63;5111076;28;20114;-27
2022/06/01 05:43:53;;;;;;;4.95;2.53;;;;;;;23.51;52.93;96886.47;5118265;28;20055;-27
2022/06/01 05:46:19;;;;;;;4.15;2.75;;;;;;;23.54;52.67;96881.94;5126389;28;20027;-27
2022/06/01 05:48:44;;;;;;;5.15;2.80;;;;;;;23.53;53.07;96883.97;5111759;28;20029;-27
2022/06/01 05:51:10;;;;;;;6.05;2.95;;;;;;;23.54;53.11;96879.19;5114691;28;20031;-26
2022/06/01 05:53:36;;;;;;;3.47;2.80;;;;;;;23.54;52.89;96881.94;5115059;28;20024;-27
2022/06/01 05:56:01;;;;;;;5.78;3.17;;;;;;;23.53;52.98;96885.97;5114983;28;20027;-28
2022/06/01 05:58:28;;;;;;;4.95;2.75;;;;;;;23.52;53.26;96893.53;5114720;28;20023;-28
2022/06/01 06:00:59;;;;;;;6.15;3.10;;;;;;;23.50;53.28;96886.94;5114726;28;20556;-27
2022/06/01 06:03:25;;;;;;;5.57;2.90;;;;;;;23.52;53.15;96890.00;5114759;28;20459;-27
2022/06/01 06:08:35;;;;;;;5.80;3.10;;;;;;;23.39;54.09;96895.22;5114972;28;20053;-26
2022/06/01 06:11:01;;;;;;;5.20;3.05;;;;;;;23.38;53.65;96899.25;5114671;28;20043;-27
2022/06/01 06:13:26;;;;;;;5.88;2.70;;;;;;;23.45;53.69;96893.25;5114749;28;20031;-28
2022/06/01 06:15:52;;;;;;;4.97;3.05;;;;;;;23.28;54.01;96890.44;5114419;28;20027;-28
2022/06/01 06:18:17;;;;;;;4.07;2.67;;;;;;;23.42;53.81;96894.22;5114719;28;20054;-27
2022/06/01 06:20:47;;;;;;;5.20;2.88;;;;;;;23.43;53.46;96901.28;5112682;28;20375;-27
2022/06/01 06:23:13;;;;;;;4.45;2.45;;;;;;;23.55;53.38;96892.53;5114552;28;20475;-26
2022/06/01 06:25:41;;;;;;;3.75;2.55;;;;;;;23.55;53.09;96895.28;5114220;28;20076;-27
2022/06/01 06:28:07;;;;;;;3.20;2.40;;;;;;;23.48;53.66;96900.53;5114232;28;20055;-28
2022/06/01 06:30:32;;;;;;;5.47;2.70;;;;;;;23.52;53.89;96901.06;5114434;28;20058;-27
2022/06/01 06:32:58;;;;;;;3.30;2.30;;;;;;;23.47;53.73;96893.50;5114009;28;20077;-26
2022/06/01 06:35:24;;;;;;;4.45;2.63;;;;;;;23.45;53.96;96899.53;5114210;28;20019;-27
2022/06/01 06:37:50;;;;;;;4.70;2.75;;;;;;;23.50;53.56;96904.34;5114317;28;20020;-27
2022/06/01 06:40:15;;;;;;;4.60;2.67;;;;;;;23.53;53.19;96906.09;5113818;28;20053;-26
2022/06/01 06:42:42;;;;;;;3.80;2.58;;;;;;;23.46;53.48;96898.28;5113916;28;20016;-26
2022/06/01 06:45:08;;;;;;;4.07;2.90;;;;;;;23.33;54.79;96902.78;5113853;28;20476;-27
2022/06/01 06:47:34;;;;;;;5.40;2.58;;;;;;;23.35;54.29;96905.81;5113546;28;20106;-27
2022/06/01 06:50:01;;;;;;;3.83;2.55;;;;;;;23.34;54.28;96904.28;5113911;28;20015;-27
2022/06/01 06:52:26;;;;;;;4.78;2.65;;;;;;;23.48;53.72;96900.53;5113746;28;20421;-27
2022/06/01 06:54:52;;;;;;;4.95;2.25;;;;;;;23.25;54.94;96903.25;5117748;27;20034;-27
2022/06/01 06:57:18;;;;;;;5.13;2.65;;;;;;;23.22;54.88;96898.72;5130452;27;20526;-27
2022/06/01 06:59:44;;;;;;;4.70;2.58;;;;;;;23.36;54.37;96897.00;5134210;27;20077;-27
2022/06/01 07:02:11;;;;;;;4.05;2.55;;;;;;;23.45;53.94;96904.31;5133115;27;20027;-27
2022/06/01 07:04:36;;;;;;;5.20;2.70;;;;;;;23.30;54.68;96901.75;5134254;27;20031;-27
2022/06/01 07:07:03;;;;;;;4.00;2.53;;;;;;;23.38;54.34;96913.09;5115723;27;20068;-28
2022/06/01 07:09:28;;;;;;;3.17;2.42;;;;;;;23.23;55.29;96900.25;5134039;27;20071;-28
2022/06/01 07:11:55;;;;;;;4.72;2.67;;;;;;;23.17;55.20;96904.25;5133734;27;20439;-27
2022/06/01 07:14:20;;;;;;;5.85;2.95;;;;;;;23.22;54.82;96898.72;5133774;27;20027;-27
2022/06/01 07:16:46;;;;;;;3.63;2.35;;;;;;;23.34;54.93;96907.06;5133422;27;20046;-27
2022/06/01 07:19:11;;;;;;;4.30;2.42;;;;;;;23.38;54.92;96907.56;5131331;27;20023;-26
2022/06/01 07:21:37;;;;;;;4.40;2.22;;;;;;;23.32;54.90;96901.25;5133944;27;20027;-27
2022/06/01 07:24:04;;;;;;;3.92;2.20;;;;;;;23.32;54.90;96904.78;5133852;27;20031;-27
2022/06/01 07:26:33;;;;;;;4.57;2.78;;;;;;;23.16;56.11;96903.47;5133346;27;20027;-28
2022/06/01 07:28:58;;;;;;;4.28;2.13;;;;;;;23.17;55.46;96901.47;5133635;27;20027;-26
2022/06/01 07:31:25;;;;;;;4.45;2.55;;;;;;;23.32;55.17;96902.03;5133602;27;20031;-27
2022/06/01 07:33:53;;;;;;;3.67;2.55;;;;;;;23.29;55.27;96905.78;5133668;27;20031;-27
2022/06/01 07:36:19;;;;;;;4.10;2.60;;;;;;;23.47;54.44;96907.34;5133460;27;20037;-27
2022/06/01 07:44:52;;;;;;;4.93;2.25;;;;;;;23.21;53.95;96896.47;5133687;27;20425;-27
2022/06/01 07:47:18;;;;;;;5.13;2.28;;;;;;;23.33;53.87;96900.00;5133137;27;20070;-26
2022/06/01 07:49:44;;;;;;;4.63;2.35;;;;;;;23.23;53.95;96905.78;5133325;27;20106;-26
2022/06/01 07:52:11;;;;;;;5.90;2.42;;;;;;;23.32;53.77;96902.03;5133097;27;20094;-26
2022/06/01 07:54:38;;;;;;;6.55;2.30;;;;;;;23.26;53.34;96896.47;5133176;27;20027;-28
2022/06/01 07:57:04;;;;;;;4.43;2.38;;;;;;;23.20;53.37;96898.47;5133239;27;20022;-27
2022/06/01 07:59:29;;;;;;;4.03;2.15;;;;;;;23.49;52.63;96904.84;5133241;27;20386;-27
2022/06/01 08:01:55;;;;;;;4.25;2.22;;;;;;;23.43;52.38;96902.03;5133093;27;20031;-27
2022/06/01 08:04:21;;;;;;;4.43;2.20;;;;;;;23.19;50.75;96902.50;5132804;27;20038;-26
2022/06/01 08:06:46;;;;;;;5.15;2.15;;;;;;;23.09;51.53;96895.69;5132986;27;20027;-28
2022/06/01 08:09:13;;;;;;;4.00;1.90;;;;;;;23.30;50.94;96901.75;5132398;27;20047;-28
2022/06/01 08:14:23;;;;;;;5.68;2.20;;;;;;;23.24;50.27;96890.66;5132969;27;20037;-27
2022/06/01 08:16:48;;;;;;;7.53;2.28;;;;;;;23.37;50.37;96900.53;5132960;27;20023;-29
2022/06/01 08:19:15;;;;;;;5.05;1.80;;;;;;;23.45;49.89;96902.31;5130839;27;20076;-27
2022/06/01 08:21:41;;;;;;;6.15;2.08;;;;;;;23.38;49.56;96894.47;5132869;27;20375;-27
2022/06/01 08:24:09;;;;;;;5.78;2.25;;;;;;;23.53;50.03;96905.34;5132847;27;20027;-26
2022/06/01 08:26:35;;;;;;;4.00;2.20;;;;;;;23.43;50.28;96906.81;5132293;27;20035;-27
2022/06/01 08:29:02;;;;;;;7.38;2.95;;;;;;;23.45;50.41;96912.63;5132737;27;20027;-27
2022/06/01 08:31:29;;;;;;;4.22;2.08;;;;;;;23.60;50.11;96915.94;5132566;27;20046;-27
2022/06/01 08:33:59;;;;;;;4.40;2.00;;;;;;;23.58;50.01;96919.22;5132577;27;20027;-27
2022/06/01 08:36:24;;;;;;;5.30;2.13;;;;;;;23.68;50.02;96922.50;5132528;27;20125;-26
2022/06/01 08:38:50;;;;;;;5.50;2.08;;;;;;;23.48;49.85;96911.63;5132363;27;20031;-27
2022/06/01 08:41:19;;;;;;;7.00;2.00;;;;;;;23.42;50.32;96924.69;5132465;27;20031;-27
2022/06/01 08:43:54;;;;;;;7.65;2.40;;;;;;;23.41;50.41;96923.91;5132527;27;20027;-26
2022/06/01 08:46:21;;;;;;;5.25;2.42;;;;;;;23.60;50.13;96927.03;5132370;27;20038;-28
2022/06/01 08:49:12;;;;;;;5.63;2.35;;;;;;;23.52;49.78;96928.75;5132299;27;20066;-27
2022/06/01 08:51:37;;;;;;;4.40;2.47;;;;;;;23.35;50.57;96922.41;5132099;27;20056;-27
2022/06/01 08:54:03;;;;;;;4.70;2.35;;;;;;;23.64;50.09;96924.75;5132370;27;20474;-27
2022/06/01 08:56:41;;;;;;;5.25;2.65;;;;;;;23.63;50.09;96921.22;5132305;27;20031;-27
2022/06/01 08:59:28;;;;;;;6.93;2.40;;;;;;;23.66;50.32;96918.72;5113586;27;20019;-27
2022/06/01 09:02:05;;;;;;;5.40;2.13;;;;;;;23.66;50.02;96921.47;5131994;27;20834;-26
2022/06/01 09:04:49;;;;;;;5.47;2.35;;;;;;;23.68;49.81;96925.25;5131853;27;20540;-27
2022/06/01 09:07:52;;;;;;;5.38;2.13;;;;;;;23.77;49.85;96922.25;5132165;27;20045;-27
2022/06/01 09:10:29;;;;;;;4.30;2.35;;;;;;;23.82;49.59;96924.28;5132029;27;20053;-26
2022/06/01 09:13:23;;;;;;;4.32;2.20;;;;;;;23.82;49.59;96927.03;5132120;27;20031;-26
2022/06/01 09:16:02;;;;;;;4.72;2.15;;;;;;;23.83;49.87;96923.00;5129152;27;20038;-27
2022/06/01 09:18:49;;;;;;;6.40;2.85;;;;;;;23.78;49.83;96925.75;5132239;27;20011;-26
2022/06/01 09:24:24;;;;;;;4.97;2.03;;;;;;;23.85;49.68;96926.03;5133493;27;20038;-27
2022/06/01 09:27:01;;;;;;;5.70;2.13;;;;;;;23.85;49.27;96926.03;5135692;27;20062;-28
2022/06/01 09:29:32;;;;;;;4.55;2.15;;;;;;;23.90;49.23;96925.28;5135991;27;20027;-27
2022/06/01 09:32:06;;;;;;;5.45;2.40;;;;;;;23.86;49.40;96929.56;5136256;27;20080;-26
2022/06/01 09:34:47;;;;;;;5.15;2.42;;;;;;;23.94;49.29;96922.25;5135658;27;20518;-27
2022/06/01 09:37:27;;;;;;;4.97;1.95;;;;;;;23.94;48.95;96923.00;5136104;27;20538;-27
2022/06/01 09:39:57;;;;;;;6.00;2.47;;;;;;;23.96;48.80;96914.19;5135875;27;20023;-26
2022/06/01 09:42:41;;;;;;;9.02;2.72;;;;;;;23.98;48.44;96920.72;5135780;27;20027;-27
2022/06/01 09:45:25;;;;;;;5.75;2.50;;;;;;;23.90;49.00;96928.03;5135877;27;20023;-27
2022/06/01 09:47:52;;;;;;;8.43;3.35;;;;;;;23.95;48.83;96930.06;5135815;27;20035;-27
2022/06/01 09:50:33;;;;;;;6.18;2.28;;;;;;;24.00;48.57;96939.63;5138067;27;20052;-27
2022/06/01 09:53:01;;;;;;;7.43;2.55;;;;;;;23.98;48.47;96931.81;5137586;27;20105;-27
2022/06/01 09:55:30;;;;;;;5.55;2.38;;;;;;;23.91;48.63;96940.63;5137011;27;20071;-26
2022/06/01 09:58:10;;;;;;;6.57;2.38;;;;;;;23.89;48.58;96929.28;5136552;27;20019;-27
2022/06/01 10:06:25;;;;;;;6.18;2.53;;;;;;;24.04;48.11;96931.81;5137507;27;20539;-27
2022/06/01 10:09:13;;;;;;;5.68;2.30;;;;;;;24.03;48.39;96929.56;5137106;27;20106;-27
2022/06/01 10:11:46;;;;;;;5.50;2.30;;;;;;;24.07;48.16;96924.53;5137288;27;20090;-26
2022/06/01 10:14:18;;;;;;;;;;;;;;;24.07;47.94;96925.28;5137934;27;20455;-29
2022/06/01 10:16:57;;;;;;;16.25;2.88;;;;;;;24.08;47.84;96926.78;5137375;27;19907;-27
2022/06/01 10:19:32;;;;;;;20.05;3.58;;;;;;;24.16;47.71;96930.56;5137328;27;20027;-26
2022/06/01 10:22:08;;;;;;;38.05;6.82;;;;;;;24.19;47.52;96923.25;5137224;27;20026;-29
2022/06/01 10:24:41;;;;;;;51.75;7.40;;;;;;;24.16;47.38;96927.78;5136917;27;20371;-27
2022/06/01 10:27:07;;;;;;;58.38;8.30;;;;;;;24.15;47.53;96925.50;5136998;27;20023;-28
2022/06/01 10:29:42;;;;;;;49.97;6.50;;;;;;;24.12;47.63;96913.41;5136977;27;20473;-26
2022/06/01 10:32:12;;;;;;;54.33;7.15;;;;;;;24.16;47.47;96913.94;5136767;27;20434;-26
2022/06/01 10:34:49;;;;;;;32.25;6.10;;;;;;;24.14;47.36;96919.22;5118122;27;20387;-26
2022/06/01 10:37:26;;;;;;;38.05;6.93;;;;;;;24.14;47.44;96912.91;5136940;27;20034;-26
2022/06/01 10:40:06;;;;;;;31.48;6.40;;;;;;;24.17;47.31;96911.91;5136758;27;20062;-27
2022/06/01 10:45:26;;;;;;;22.55;5.40;;;;;;;24.22;47.09;96919.47;5136549;27;20027;-26
2022/06/01 10:48:04;;;;;;;20.48;5.03;;;;;;;24.22;46.81;96920.25;5136458;27;20430;-28
2022/06/01 10:50:42;;;;;;;18.98;4.03;;;;;;;24.21;46.77;96913.19;5136792;27;20020;-27
2022/06/01 10:53:39;;;;;;;15.07;4.57;;;;;;;24.24;46.53;96917.72;5136430;27;20424;-27
2022/06/01 10:56:06;;;;;;;17.98;4.35;;;;;;;24.21;46.57;96915.19;5120541;27;20459;-26
2022/06/01 10:58:32;;;;;;;15.80;4.20;;;;;;;24.30;46.40;96914.94;5136599;27;20073;-26
2022/06/01 11:01:07;;;;;;;13.20;3.10;;;;;;;24.37;46.04;96919.97;5136208;27;20023;-27
2022/06/01 11:03:35;;;;;;;14.38;2.85;;;;;;;24.38;46.15;96910.41;5136114;27;20107;-27
2022/06/01 11:06:52;;;;;;;16.33;3.17;;;;;;;24.37;46.43;96911.66;5135270;27;20148;-26
2022/06/01 11:09:32;;;;;;;10.70;3.03;;;;;;;24.39;45.51;96913.91;5129393;27;20120;-26
2022/06/01 11:12:15;;;;;;;13.35;2.80;;;;;;;24.36;45.91;96904.59;5135929;27;20412;-28
2022/06/01 11:14:49;;;;;;;10.73;2.95;;;;;;;24.31;46.18;96913.69;5135503;27;20031;-27
2022/06/01 11:17:35;;;;;;;11.75;3.13;;;;;;;24.34;46.04;96910.66;5136345;27;20113;-26
2022/06/01 11:20:33;;;;;;;9.90;2.80;;;;;;;24.34;46.31;96904.38;5136038;27;20023;-27
2022/06/01 11:23:11;;;;;;;13.15;4.15;;;;;;;24.34;46.21;96901.59;5135917;27;20021;-26
2022/06/01 11:25:52;;;;;;;13.65;2.70;;;;;;;24.34;46.14;96899.59;5135961;27;20076;-26
2022/06/01 11:28:52;;;;;;;8.30;2.78;;;;;;;24.39;46.19;96895.28;5135986;27;20429;-26
2022/06/01 11:31:21;;;;;;;9.68;3.25;;;;;;;24.41;46.52;96897.53;5135741;27;20050;-26
2022/06/01 11:33:54;;;;;;;10.68;2.58;;;;;;;24.42;46.72;96891.50;5135829;27;20344;-27
2022/06/01 11:36:32;;;;;;;5.93;2.25;;;;;;;24.45;46.72;96896.03;5117228;27;20448;-27
2022/06/01 11:39:24;;;;;;;5.60;2.40;;;;;;;24.45;46.75;96898.81;5135505;27;20030;-27
2022/06/01 11:42:20;;;;;;;6.32;2.22;;;;;;;24.45;47.04;96889.72;5135397;27;20023;-26
2022/06/01 11:44:59;;;;;;;6.38;2.70;;;;;;;24.43;47.21;96897.78;5135613;27;20060;-26
2022/06/01 11:47:30;;;;;;;8.43;2.72;;;;;;;24.41;47.14;96892.75;5132533;27;20038;-27
2022/06/01 11:50:24;;;;;;;8.45;2.90;;;;;;;24.50;47.04;96891.72;5133123;27;20030;-26
2022/06/01 11:52:58;;;;;;;9.10;2.95;;;;;;;24.46;47.09;96889.22;5135441;27;20051;-27
2022/06/01 11:55:36;;;;;;;7.30;2.95;;;;;;;24.46;47.13;96883.69;5135211;27;20045;-29
2022/06/01 11:58:29;;;;;;;11.82;3.03;;;;;;;24.45;47.29;96881.41;5135186;27;20374;-27
2022/06/01 12:01:10;;;;;;;9.68;2.53;;;;;;;24.45;46.86;96882.16;5124285;27;20061;-27
2022/06/01 12:03:39;;;;;;;5.22;2.35;;;;;;;24.45;46.91;96884.94;5134962;27;20118;-26
2022/06/01 12:06:08;;;;;;;4.05;2.00;;;;;;;24.52;46.57;96880.88;5134967;27;20076;-26
2022/06/01 12:08:54;;;;;;;9.20;2.20;;;;;;;25.69;42.66;96888.66;5134844;27;20023;-30
2022/06/01 12:11:38;;;;;;;17.50;4.10;;;;;;;26.13;42.60;96891.06;5134701;27;20028;-26
2022/06/01 12:14:30;;;;;;;14.50;2.60;;;;;;;26.36;42.55;96876.97;5134901;27;20027;-26
2022/06/01 12:17:17;;;;;;;13.25;2.97;;;;;;;26.41;41.62;96890.06;5134736;27;20516;-26
2022/06/01 12:19:45;;;;;;;13.10;2.70;;;;;;;26.46;42.09;96886.47;5134834;27;20027;-25